Time;durP1;ratioP1;P1;durP2;ratioP2;P2;SDS_P1;SDS_P2;PMS_P1;PMS_P2;Temp;Humidity;BMP_temperature;BMP_pressure;BME280_temperature;BME280_humidity;BME280_pressure;Samples;Min_cycle;Max_cycle;Signal;HPM_P1;HPM_P2
2023/11/22 00:00:22;;;;;;;2.55;1.88;;;;;;;5.60;77.30;102717.59;5080521;28;20067;-70
2023/11/22 00:02:48;;;;;;;2.67;1.90;;;;;;;5.62;77.45;102714.78;5076302;28;20051;-70
2023/11/22 00:05:14;;;;;;;3.28;2.20;;;;;;;5.63;77.67;102725.38;5080723;28;20564;-70
2023/11/22 00:07:39;;;;;;;3.60;2.30;;;;;;;5.63;77.83;102714.69;5081408;28;20099;-70
2023/11/22 00:10:05;;;;;;;2.78;2.28;;;;;;;5.57;77.88;102708.97;5081960;28;20028;-70
2023/11/22 00:12:38;;;;;;;3.63;2.50;;;;;;;5.59;77.87;102710.53;5063736;28;20035;-70
2023/11/22 00:15:07;;;;;;;2.90;2.35;;;;;;;5.49;77.44;102688.19;5081067;28;20059;-70
2023/11/22 00:17:34;;;;;;;2.80;2.42;;;;;;;5.58;77.78;102708.00;5080019;28;20090;-70
2023/11/22 00:20:05;;;;;;;3.70;2.42;;;;;;;5.61;77.55;102705.94;5079651;28;20091;-70
2023/11/22 00:22:32;;;;;;;3.10;2.40;;;;;;;5.64;77.45;102699.50;5079430;28;20024;-70
2023/11/22 00:24:58;;;;;;;3.00;2.38;;;;;;;5.57;77.46;102693.78;5080883;28;20028;-70
2023/11/22 00:27:29;;;;;;;3.35;2.63;;;;;;;5.54;77.79;102702.03;5079676;28;20136;-70
2023/11/22 00:29:55;;;;;;;4.30;3.05;;;;;;;5.54;77.71;102693.19;5075983;28;20040;-70
2023/11/22 00:32:20;;;;;;;3.15;2.50;;;;;;;5.49;77.85;102682.84;5076454;28;20040;-70
2023/11/22 00:34:47;;;;;;;3.88;2.28;;;;;;;5.51;77.44;102693.41;5079155;28;20124;-70
2023/11/22 00:37:12;;;;;;;3.15;2.53;;;;;;;5.50;77.63;102684.56;5079555;28;20033;-69
2023/11/22 00:39:38;;;;;;;3.20;2.47;;;;;;;5.51;77.20;102685.41;5081448;28;20032;-70
2023/11/22 00:42:03;;;;;;;3.15;2.13;;;;;;;5.42;77.68;102676.28;5079594;28;20033;-70
2023/11/22 00:44:30;;;;;;;2.58;2.10;;;;;;;5.43;77.54;102678.00;5080749;28;20038;-70
2023/11/22 00:46:57;;;;;;;3.33;2.15;;;;;;;5.30;77.97;102669.25;5079806;28;20040;-70
2023/11/22 00:49:22;;;;;;;3.28;2.20;;;;;;;5.30;77.81;102656.75;5073269;28;20056;-70
2023/11/22 00:51:48;;;;;;;3.03;2.25;;;;;;;5.32;77.60;102667.28;5055781;28;20067;-70
2023/11/22 00:54:14;;;;;;;3.58;2.45;;;;;;;5.20;77.35;102634.41;5079110;28;20067;-69
2023/11/22 00:56:40;;;;;;;3.10;2.22;;;;;;;5.33;77.80;102655.63;5078688;28;20047;-69
2023/11/22 00:59:06;;;;;;;2.42;2.13;;;;;;;5.33;77.57;102647.63;5077091;28;20053;-70
2023/11/22 01:01:31;;;;;;;3.08;2.47;;;;;;;5.18;77.76;102636.34;5079323;28;20044;-70
2023/11/22 01:03:57;;;;;;;3.17;2.33;;;;;;;5.27;77.59;102648.13;5060526;28;20031;-70
2023/11/22 01:06:23;;;;;;;4.15;2.40;;;;;;;5.19;78.60;102654.88;5074982;28;20055;-72
2023/11/22 01:08:49;;;;;;;4.68;2.30;;;;;;;5.16;78.63;102657.78;5076922;28;20590;-70
2023/11/22 01:11:14;;;;;;;2.90;2.35;;;;;;;5.15;78.57;102658.78;5078798;28;20056;-70
2023/11/22 01:13:43;;;;;;;3.60;2.25;;;;;;;5.04;79.02;102633.91;5070061;28;20485;-70
2023/11/22 01:16:09;;;;;;;3.72;2.75;;;;;;;5.14;78.73;102657.06;5081590;28;20096;-70
2023/11/22 01:18:36;;;;;;;3.13;2.40;;;;;;;5.14;78.84;102654.41;5079498;28;20028;-69
2023/11/22 01:21:03;;;;;;;2.83;2.22;;;;;;;5.11;79.08;102659.97;5078602;28;20589;-70
2023/11/22 01:23:29;;;;;;;3.05;2.20;;;;;;;5.02;78.77;102658.00;5061321;28;20025;-70
2023/11/22 01:25:54;;;;;;;3.30;2.20;;;;;;;5.10;78.95;102671.63;5077270;28;20032;-70
2023/11/22 01:28:19;;;;;;;3.40;2.30;;;;;;;5.09;78.64;102663.72;5060363;28;20063;-70
2023/11/22 01:30:45;;;;;;;3.38;2.20;;;;;;;5.07;79.22;102666.53;5077037;28;20033;-70
2023/11/22 01:33:11;;;;;;;3.58;2.33;;;;;;;5.08;79.08;102662.88;5078244;28;20036;-70
2023/11/22 01:35:38;;;;;;;4.32;2.30;;;;;;;4.92;79.07;102643.69;5079238;28;20024;-70
2023/11/22 01:38:04;;;;;;;2.75;2.30;;;;;;;5.01;79.17;102655.47;5078351;28;20551;-70
2023/11/22 01:40:31;;;;;;;3.80;2.58;;;;;;;5.04;78.69;102676.59;5079144;28;20365;-70
2023/11/22 01:42:57;;;;;;;2.38;2.17;;;;;;;5.05;78.98;102676.44;5078779;28;20016;-70
2023/11/22 01:45:23;;;;;;;2.38;2.15;;;;;;;5.08;78.81;102672.72;5077329;28;20127;-70
2023/11/22 01:47:48;;;;;;;3.10;2.45;;;;;;;5.07;79.13;102669.19;5061239;28;20056;-70
2023/11/22 01:50:14;;;;;;;2.85;2.38;;;;;;;5.03;78.78;102649.03;5076951;28;20547;-70
2023/11/22 01:52:41;;;;;;;3.05;2.53;;;;;;;5.04;79.02;102649.91;5074893;28;20032;-70
2023/11/22 01:55:08;;;;;;;4.53;2.40;;;;;;;5.01;79.17;102655.47;5077225;28;20032;-70
2023/11/22 01:57:34;;;;;;;2.53;2.30;;;;;;;5.05;79.05;102640.94;5077177;28;20033;-70
2023/11/22 02:00:14;;;;;;;2.85;2.20;;;;;;;5.02;79.16;102647.34;5077966;28;20485;-70
2023/11/22 02:02:39;;;;;;;3.08;2.38;;;;;;;4.94;79.07;102649.75;5080740;28;20028;-70
2023/11/22 02:05:05;;;;;;;3.25;2.50;;;;;;;4.84;79.21;102628.25;5077581;28;20032;-70
2023/11/22 02:07:31;;;;;;;5.15;2.28;;;;;;;4.88;78.87;102636.88;5061572;28;20046;-70
2023/11/22 02:09:57;;;;;;;5.18;2.50;;;;;;;4.87;79.10;102644.03;5077633;28;20042;-70
2023/11/22 02:12:23;;;;;;;3.00;2.47;;;;;;;4.87;79.58;102645.84;5075971;28;20378;-70
2023/11/22 02:14:49;;;;;;;2.72;2.30;;;;;;;4.83;79.26;102647.88;5078920;28;20036;-70
2023/11/22 02:17:16;;;;;;;3.47;2.40;;;;;;;4.78;79.67;102646.56;5086194;28;20024;-70
2023/11/22 02:19:42;;;;;;;4.28;2.58;;;;;;;4.85;79.71;102645.97;5078022;28;20384;-70
2023/11/22 02:22:08;;;;;;;3.97;2.40;;;;;;;4.85;79.80;102645.13;5075919;28;20700;-70
2023/11/22 02:24:34;;;;;;;2.83;2.38;;;;;;;4.88;79.81;102635.06;5078434;28;20059;-70
2023/11/22 02:27:00;;;;;;;4.85;2.53;;;;;;;4.88;80.38;102635.06;5077031;28;20035;-70
2023/11/22 02:29:25;;;;;;;3.45;2.50;;;;;;;4.91;80.03;102631.31;5078083;28;20088;-70
2023/11/22 02:31:50;;;;;;;3.95;2.55;;;;;;;4.89;79.98;102625.22;5076538;28;20029;-70
2023/11/22 02:34:16;;;;;;;3.03;2.60;;;;;;;4.82;80.22;102597.34;5076169;28;20435;-70
2023/11/22 02:36:44;;;;;;;2.88;2.30;;;;;;;4.85;80.54;102592.63;5076177;28;20036;-70
2023/11/22 02:39:10;;;;;;;3.03;2.60;;;;;;;4.86;80.58;102590.78;5071850;28;20028;-70
2023/11/22 02:41:36;;;;;;;2.90;2.28;;;;;;;4.85;80.87;102594.44;5074399;28;20061;-70
2023/11/22 02:44:02;;;;;;;7.00;2.60;;;;;;;4.65;80.86;102553.28;5076727;28;20109;-70
2023/11/22 02:46:27;;;;;;;3.53;2.58;;;;;;;4.70;80.69;102556.44;5078015;28;20035;-70
2023/11/22 02:48:55;;;;;;;5.63;2.70;;;;;;;4.84;80.68;102574.91;5076138;28;20028;-70
2023/11/22 02:51:22;;;;;;;3.15;2.72;;;;;;;4.79;80.90;102573.56;5071899;28;20024;-71
2023/11/22 02:53:49;;;;;;;4.05;2.50;;;;;;;4.83;81.29;102583.88;5076609;28;20029;-70
2023/11/22 02:56:15;;;;;;;5.18;2.63;;;;;;;4.83;81.16;102557.19;5077937;28;20025;-70
2023/11/22 02:58:41;;;;;;;3.03;2.38;;;;;;;4.65;81.43;102542.63;5093918;28;20149;-69
2023/11/22 03:01:07;;;;;;;3.03;2.30;;;;;;;4.79;81.83;102566.41;5059715;28;20470;-71
2023/11/22 03:03:34;;;;;;;4.60;2.70;;;;;;;4.75;81.88;102564.97;5078531;28;20028;-70
2023/11/22 03:05:59;;;;;;;3.65;2.67;;;;;;;4.68;82.25;102561.91;5077944;28;20020;-70
2023/11/22 03:08:24;;;;;;;3.60;2.58;;;;;;;4.69;82.36;102566.25;5076453;28;20028;-70
2023/11/22 03:10:50;;;;;;;3.03;2.55;;;;;;;4.59;82.31;102543.94;5076509;28;20111;-70
2023/11/22 03:13:17;;;;;;;4.88;2.67;;;;;;;4.70;82.22;102557.31;5077001;28;20458;-70
2023/11/22 03:15:42;;;;;;;3.05;2.58;;;;;;;4.70;81.99;102544.00;5059774;28;20059;-70
2023/11/22 03:18:08;;;;;;;3.78;2.47;;;;;;;4.64;82.68;102536.44;5077440;28;20455;-70
2023/11/22 03:20:33;;;;;;;5.05;2.65;;;;;;;4.69;82.48;102536.09;5076646;28;20044;-70
2023/11/22 03:22:59;;;;;;;3.70;2.42;;;;;;;4.72;82.67;102522.53;5075916;28;20028;-70
2023/11/22 03:25:25;;;;;;;2.97;2.63;;;;;;;4.75;82.29;102516.09;5078312;28;20025;-70
2023/11/22 03:27:51;;;;;;;3.03;2.38;;;;;;;4.71;82.83;102497.69;5078351;28;20040;-70
2023/11/22 03:30:17;;;;;;;4.55;2.72;;;;;;;4.81;82.82;102488.97;5077452;28;20027;-70
2023/11/22 03:32:43;;;;;;;2.92;2.38;;;;;;;4.90;82.42;102482.88;5076093;28;20047;-70
2023/11/22 03:35:09;;;;;;;2.75;2.13;;;;;;;4.87;82.70;102461.81;5077570;28;20025;-70
2023/11/22 03:37:35;;;;;;;2.90;2.60;;;;;;;4.97;82.30;102462.78;5060168;28;20035;-70
2023/11/22 03:40:00;;;;;;;6.30;2.90;;;;;;;4.98;82.66;102466.28;5080826;28;20127;-70
2023/11/22 03:42:26;;;;;;;6.45;2.55;;;;;;;5.00;82.82;102469.66;5063898;28;20021;-70
2023/11/22 03:44:56;;;;;;;2.70;2.33;;;;;;;5.03;83.06;102488.09;5079408;28;20031;-71
2023/11/22 03:47:21;;;;;;;3.47;2.63;;;;;;;5.06;83.18;102487.88;5074986;28;20040;-70
2023/11/22 03:49:47;;;;;;;3.30;2.60;;;;;;;5.08;82.87;102481.44;5079965;28;20112;-70
2023/11/22 03:52:14;;;;;;;3.13;2.70;;;;;;;5.12;83.31;102490.06;5080000;28;20025;-70
2023/11/22 03:54:39;;;;;;;3.33;2.67;;;;;;;5.18;83.30;102487.75;5081654;28;20446;-70
2023/11/22 03:57:05;;;;;;;4.75;2.80;;;;;;;5.19;83.36;102478.75;5081056;28;20066;-70
2023/11/22 03:59:30;;;;;;;3.90;2.67;;;;;;;5.07;84.29;102458.41;5081130;28;20114;-71
2023/11/22 04:01:56;;;;;;;4.90;2.83;;;;;;;5.31;84.41;102478.75;5078902;28;20029;-70
2023/11/22 04:04:22;;;;;;;4.00;2.95;;;;;;;5.37;84.34;102475.59;5078747;28;20032;-70
2023/11/22 04:06:48;;;;;;;3.78;2.88;;;;;;;5.27;84.63;102447.97;5079352;28;20021;-70
2023/11/22 04:09:16;;;;;;;4.68;3.17;;;;;;;5.50;84.87;102476.31;5077458;28;20031;-70
2023/11/22 04:11:42;;;;;;;3.88;3.25;;;;;;;5.48;85.25;102485.41;5080119;28;20035;-70
2023/11/22 04:14:08;;;;;;;4.10;3.35;;;;;;;5.48;85.64;102483.56;5080186;28;20021;-70
2023/11/22 04:16:33;;;;;;;5.22;3.65;;;;;;;5.46;85.54;102480.16;5079363;28;20560;-70
2023/11/22 04:18:59;;;;;;;4.97;3.10;;;;;;;5.30;86.63;102472.56;5078586;28;20025;-72
2023/11/22 04:21:24;;;;;;;4.13;3.38;;;;;;;5.21;87.33;102459.13;5080338;28;20024;-71
2023/11/22 04:23:49;;;;;;;4.95;3.40;;;;;;;5.21;87.71;102440.44;5080329;28;20041;-71
2023/11/22 04:26:15;;;;;;;5.57;3.75;;;;;;;5.21;87.76;102443.13;5080143;28;20135;-71
2023/11/22 04:28:41;;;;;;;4.28;3.55;;;;;;;5.24;88.46;102430.38;5073614;28;20029;-71
2023/11/22 04:31:08;;;;;;;7.43;3.78;;;;;;;5.26;88.32;102425.72;5072166;28;20039;-71
2023/11/22 04:33:34;;;;;;;9.70;3.42;;;;;;;5.30;88.75;102437.88;5079316;28;20029;-71
2023/11/22 04:35:59;;;;;;;6.15;3.38;;;;;;;5.32;89.11;102429.72;5063065;28;20035;-71
2023/11/22 04:38:25;;;;;;;6.43;3.35;;;;;;;5.36;88.90;102426.72;5079489;28;20510;-70
2023/11/22 04:40:50;;;;;;;5.97;3.13;;;;;;;5.39;89.20;102444.28;5078672;28;20029;-71
2023/11/22 04:43:15;;;;;;;6.22;3.67;;;;;;;5.48;88.96;102448.03;5080439;28;20060;-70
2023/11/22 04:45:41;;;;;;;6.32;3.70;;;;;;;5.45;89.53;102445.59;5079231;28;20495;-70
2023/11/22 04:48:06;;;;;;;7.03;3.80;;;;;;;5.32;89.48;102441.25;5061839;28;20035;-70
2023/11/22 04:50:32;;;;;;;4.95;3.58;;;;;;;5.56;90.00;102454.44;5077693;28;20028;-70
2023/11/22 04:52:58;;;;;;;5.32;3.83;;;;;;;5.61;89.55;102433.53;5079393;28;20032;-70
2023/11/22 04:55:23;;;;;;;7.05;3.97;;;;;;;5.62;89.28;102426.38;5077050;28;20036;-71
2023/11/22 04:57:49;;;;;;;6.07;3.60;;;;;;;5.65;89.83;102420.78;5079160;28;20072;-69
2023/11/22 05:00:15;;;;;;;4.88;3.55;;;;;;;5.60;90.33;102401.63;5078080;28;20692;-70
2023/11/22 05:02:41;;;;;;;7.38;3.90;;;;;;;5.57;90.46;102385.88;5076549;28;20028;-71
2023/11/22 05:05:12;;;;;;;8.75;4.13;;;;;;;5.70;90.39;102380.34;5077965;28;20043;-71
2023/11/22 05:07:38;;;;;;;7.10;4.10;;;;;;;5.72;90.69;102367.69;5077994;28;20040;-70
2023/11/22 05:10:05;;;;;;;5.22;3.80;;;;;;;5.72;90.40;102357.00;5065647;28;20039;-68
2023/11/22 05:12:31;;;;;;;5.63;3.30;;;;;;;5.72;91.24;102357.00;5076874;28;20028;-69
2023/11/22 05:14:56;;;;;;;7.47;3.10;;;;;;;5.69;91.43;102352.78;5077680;28;20024;-68
2023/11/22 05:17:22;;;;;;;6.80;3.13;;;;;;;5.74;91.39;102341.72;5060159;28;20059;-68
2023/11/22 05:19:49;;;;;;;4.03;3.10;;;;;;;5.72;91.53;102335.66;5077408;28;20039;-68
2023/11/22 05:22:14;;;;;;;8.38;3.50;;;;;;;5.68;92.37;102319.03;5075932;28;20036;-67
2023/11/22 05:24:41;;;;;;;4.75;3.15;;;;;;;5.59;93.00;102314.47;5078693;28;20491;-70
2023/11/22 05:27:09;;;;;;;4.55;3.20;;;;;;;5.64;92.90;102334.47;5079273;28;20091;-71
2023/11/22 05:29:35;;;;;;;8.40;3.30;;;;;;;5.72;92.62;102331.16;5079171;28;20043;-71
2023/11/22 05:32:01;;;;;;;5.03;2.90;;;;;;;5.65;93.28;102324.63;5078087;28;20036;-71
2023/11/22 05:34:27;;;;;;;8.95;3.08;;;;;;;5.72;93.08;102333.81;5077770;28;20368;-70
2023/11/22 05:36:53;;;;;;;3.97;2.60;;;;;;;5.55;93.10;102343.25;5076332;28;20021;-70
2023/11/22 05:39:18;;;;;;;4.07;2.70;;;;;;;5.62;93.13;102363.13;5074842;28;20465;-70
2023/11/22 05:41:45;;;;;;;3.65;2.58;;;;;;;5.76;92.59;102351.31;5079427;28;20034;-71
2023/11/22 05:44:10;;;;;;;6.07;2.80;;;;;;;5.81;92.03;102353.56;5079139;28;20074;-71
2023/11/22 05:46:36;;;;;;;5.50;2.88;;;;;;;5.91;91.97;102346.47;5078560;28;20375;-70
2023/11/22 05:49:01;;;;;;;4.32;3.10;;;;;;;5.95;91.86;102337.25;5078986;28;20043;-71
2023/11/22 05:51:28;;;;;;;5.78;2.90;;;;;;;5.96;91.92;102330.94;5079346;28;20037;-71
2023/11/22 05:53:53;;;;;;;8.57;3.08;;;;;;;5.99;91.63;102311.94;5080305;28;20111;-71
2023/11/22 05:56:19;;;;;;;9.25;2.83;;;;;;;5.92;91.84;102317.91;5078736;28;20052;-70
2023/11/22 05:58:44;;;;;;;6.50;2.90;;;;;;;5.89;91.45;102317.22;5062204;28;20057;-71
2023/11/22 06:01:12;;;;;;;5.53;2.40;;;;;;;5.89;92.05;102325.25;5055609;28;20402;-69
2023/11/22 06:03:38;;;;;;;4.85;2.60;;;;;;;6.09;91.78;102342.25;5077374;28;20101;-70
2023/11/22 06:06:05;;;;;;;5.07;2.42;;;;;;;6.20;90.91;102353.84;5078063;28;20092;-70
2023/11/22 06:08:30;;;;;;;3.78;2.17;;;;;;;6.29;90.56;102340.53;5076518;28;20029;-71
2023/11/22 06:10:57;;;;;;;5.10;2.55;;;;;;;6.30;90.46;102330.69;5074461;28;20020;-70
2023/11/22 06:13:23;;;;;;;3.10;1.83;;;;;;;6.28;90.37;102336.16;5081103;28;20857;-70
2023/11/22 06:16:09;;;;;;;4.30;2.33;;;;;;;6.45;90.37;102333.84;5081134;28;20032;-70
2023/11/22 06:18:39;;;;;;;3.63;2.38;;;;;;;6.51;89.59;102344.00;5096433;28;20115;-70
2023/11/22 06:21:08;;;;;;;3.15;1.80;;;;;;;6.34;90.63;102353.50;5083092;28;20482;-70
2023/11/22 06:23:33;;;;;;;3.92;2.10;;;;;;;6.44;90.16;102340.16;5097931;28;20036;-71
2023/11/22 06:25:59;;;;;;;5.28;2.40;;;;;;;6.50;89.96;102340.47;5091476;28;20031;-70
2023/11/22 06:28:25;;;;;;;5.00;2.45;;;;;;;6.65;88.77;102335.59;5092210;28;20027;-70
2023/11/22 06:30:50;;;;;;;5.28;2.17;;;;;;;6.67;88.32;102325.63;5095594;28;20032;-70
2023/11/22 06:33:16;;;;;;;2.97;1.80;;;;;;;6.48;88.61;102322.88;5098782;28;20028;-70
2023/11/22 06:35:42;;;;;;;4.32;2.00;;;;;;;6.63;87.96;102305.47;5081760;28;20028;-70
2023/11/22 06:38:08;;;;;;;3.17;1.80;;;;;;;6.63;87.70;102296.63;5077336;28;20035;-70
2023/11/22 06:40:33;;;;;;;4.60;1.63;;;;;;;6.73;86.72;102310.84;5096816;28;20127;-70
2023/11/22 06:42:59;;;;;;;5.72;2.00;;;;;;;6.77;86.30;102275.66;5095173;28;20054;-70
2023/11/22 06:45:25;;;;;;;3.13;1.70;;;;;;;6.66;85.23;102258.91;5096118;28;20028;-70
2023/11/22 06:47:50;;;;;;;2.88;1.67;;;;;;;6.82;84.58;102273.44;5096789;28;20039;-70
2023/11/22 06:50:16;;;;;;;5.97;2.05;;;;;;;6.87;84.59;102272.16;5095518;28;20025;-70
2023/11/22 06:52:42;;;;;;;4.00;1.80;;;;;;;6.81;84.47;102281.56;5098116;28;20036;-70
2023/11/22 06:55:09;;;;;;;5.93;1.80;;;;;;;6.84;83.46;102281.31;5098958;28;20039;-70
2023/11/22 06:57:35;;;;;;;8.32;2.20;;;;;;;6.85;83.29;102266.94;5097823;28;20060;-70
2023/11/22 07:00:04;;;;;;;4.55;2.00;;;;;;;6.99;82.45;102263.88;5098668;28;20035;-70
2023/11/22 07:02:35;;;;;;;6.25;1.95;;;;;;;6.91;82.88;102266.38;5096219;28;20214;-70
2023/11/22 07:05:00;;;;;;;4.25;1.90;;;;;;;6.96;82.45;102261.47;5096325;28;20028;-70
2023/11/22 07:07:26;;;;;;;3.25;1.90;;;;;;;6.88;82.10;102223.00;5094491;28;20097;-70
2023/11/22 07:09:51;;;;;;;2.67;1.80;;;;;;;7.02;82.03;102260.91;5094881;28;20313;-70
2023/11/22 07:12:19;;;;;;;6.10;1.80;;;;;;;7.06;81.25;102259.63;5095222;28;20043;-70
2023/11/22 07:14:44;;;;;;;4.20;1.95;;;;;;;7.10;81.08;102252.16;5095922;28;20051;-70
2023/11/22 07:17:10;;;;;;;4.45;1.88;;;;;;;7.16;81.22;102248.94;5099393;28;20032;-70
2023/11/22 07:19:37;;;;;;;3.25;1.60;;;;;;;7.01;81.14;102245.81;5100736;28;20067;-70
2023/11/22 07:22:15;;;;;;;3.50;1.80;;;;;;;6.98;80.28;102245.25;5101774;28;20120;-70
2023/11/22 07:24:44;;;;;;;5.25;2.10;;;;;;;7.01;81.04;102248.50;5118823;28;20433;-70
2023/11/22 07:27:13;;;;;;;4.85;1.70;;;;;;;6.94;81.12;102236.66;5081772;28;20039;-70
2023/11/22 07:29:42;;;;;;;3.30;1.65;;;;;;;6.96;81.06;102231.19;5099715;28;20024;-70
2023/11/22 07:32:08;;;;;;;3.63;1.88;;;;;;;6.92;80.04;102205.69;5100217;28;20118;-70
2023/11/22 07:34:35;;;;;;;4.43;1.42;;;;;;;7.14;79.48;102244.69;5101557;28;20130;-70
2023/11/22 07:37:00;;;;;;;4.65;1.67;;;;;;;7.22;79.28;102239.50;5101212;28;20031;-70
2023/11/22 07:39:29;;;;;;;4.35;2.00;;;;;;;7.25;78.88;102239.19;5100058;28;20039;-70
2023/11/22 07:41:55;;;;;;;4.18;1.77;;;;;;;7.24;79.37;102234.84;5099749;28;20467;-70
2023/11/22 07:44:21;;;;;;;4.28;2.13;;;;;;;7.17;79.08;102229.19;5101145;28;20028;-70
2023/11/22 07:46:47;;;;;;;4.45;1.70;;;;;;;7.05;79.29;102204.44;5101929;28;20575;-70
2023/11/22 07:49:13;;;;;;;5.78;2.20;;;;;;;7.26;79.11;102223.00;5101050;28;20086;-70
2023/11/22 07:51:39;;;;;;;4.32;1.65;;;;;;;7.25;79.05;102228.47;5101260;28;20432;-70
2023/11/22 07:54:05;;;;;;;4.78;2.15;;;;;;;7.16;78.52;102202.59;5082752;28;20034;-69
2023/11/22 07:56:32;;;;;;;4.78;1.70;;;;;;;7.20;78.85;102215.53;5100300;28;20101;-70
2023/11/22 07:58:58;;;;;;;4.25;1.60;;;;;;;7.22;78.35;102213.56;5101257;28;20076;-70
2023/11/22 08:01:25;;;;;;;4.32;1.52;;;;;;;7.33;78.07;102193.81;5099145;28;20042;-70
2023/11/22 08:03:55;;;;;;;3.72;1.50;;;;;;;7.36;77.70;102185.50;5100228;28;20028;-70
2023/11/22 08:06:21;;;;;;;4.60;1.48;;;;;;;7.32;77.18;102188.59;5101364;28;20028;-69
2023/11/22 08:08:46;;;;;;;3.35;1.58;;;;;;;7.25;77.19;102185.66;5101106;28;20038;-70
2023/11/22 08:11:15;;;;;;;4.50;1.88;;;;;;;7.39;76.91;102197.75;5100206;28;20087;-70
2023/11/22 08:13:44;;;;;;;5.13;1.60;;;;;;;7.37;76.43;102184.50;5098035;28;20070;-70
2023/11/22 08:16:13;;;;;;;6.97;1.75;;;;;;;7.38;75.78;102167.44;5096060;28;20018;-70
2023/11/22 08:18:39;;;;;;;9.40;1.42;;;;;;;7.28;76.20;102161.25;5098279;28;20574;-70
2023/11/22 08:21:04;;;;;;;5.20;1.60;;;;;;;7.46;75.30;102156.88;5099797;28;20036;-70
2023/11/22 08:23:31;;;;;;;3.72;1.58;;;;;;;7.44;75.15;102144.59;5095355;28;20081;-70
2023/11/22 08:26:00;;;;;;;6.25;1.98;;;;;;;7.44;75.53;102152.63;5093114;28;20467;-70
2023/11/22 08:28:26;;;;;;;3.90;1.90;;;;;;;7.53;75.15;102125.81;5101961;28;20107;-70
2023/11/22 08:30:52;;;;;;;4.88;1.80;;;;;;;7.40;75.21;102093.16;5099743;28;20173;-70
2023/11/22 08:33:17;;;;;;;6.38;1.98;;;;;;;7.43;75.55;102108.94;5099402;28;20020;-71
2023/11/22 08:35:43;;;;;;;4.70;1.90;;;;;;;7.46;75.68;102102.47;5100888;28;20502;-70
2023/11/22 08:38:09;;;;;;;6.97;2.08;;;;;;;7.49;75.64;102100.31;5100144;28;20015;-70
2023/11/22 08:40:37;;;;;;;5.80;1.80;;;;;;;7.44;75.98;102091.88;5082716;28;20040;-70
2023/11/22 08:43:04;;;;;;;6.85;2.00;;;;;;;7.36;76.11;102053.44;5100542;28;20031;-70
2023/11/22 08:45:31;;;;;;;8.65;2.20;;;;;;;7.49;75.53;102052.13;5099152;28;20028;-70
2023/11/22 08:47:57;;;;;;;5.43;2.20;;;;;;;7.53;76.23;102047.31;5100256;28;20028;-70
2023/11/22 08:50:22;;;;;;;5.82;2.35;;;;;;;7.54;76.33;102047.16;5096762;28;20039;-70
2023/11/22 08:52:52;;;;;;;7.05;2.28;;;;;;;7.60;76.25;102048.41;5100462;28;20107;-70
2023/11/22 08:55:21;;;;;;;6.13;2.50;;;;;;;7.55;75.92;102039.97;5084068;28;20032;-70
2023/11/22 08:57:50;;;;;;;4.18;2.03;;;;;;;7.59;76.40;102036.00;5101534;28;20437;-70
2023/11/22 09:00:22;;;;;;;6.30;2.30;;;;;;;7.54;76.52;102022.19;5100548;28;20099;-70
2023/11/22 09:02:48;;;;;;;5.65;2.17;;;;;;;7.59;76.61;102029.81;5100967;28;20034;-69
2023/11/22 09:05:14;;;;;;;7.13;2.35;;;;;;;7.60;76.82;102020.78;5098426;28;20138;-69
2023/11/22 09:07:39;;;;;;;8.23;2.13;;;;;;;7.57;77.02;102000.47;5097940;28;20047;-70
2023/11/22 09:10:14;;;;;;;8.27;2.05;;;;;;;7.64;76.63;101990.00;5092224;28;20443;-70
2023/11/22 09:12:41;;;;;;;8.45;2.60;;;;;;;7.58;77.69;101991.44;5082872;28;20035;-70
2023/11/22 09:15:12;;;;;;;6.80;2.30;;;;;;;7.49;77.31;101950.34;5099506;28;20032;-69
2023/11/22 09:17:43;;;;;;;7.70;2.70;;;;;;;7.69;77.11;101950.22;5099795;28;20020;-70
2023/11/22 09:20:16;;;;;;;6.97;2.33;;;;;;;7.70;77.38;101936.66;5099413;28;20034;-70
2023/11/22 09:22:50;;;;;;;5.40;2.28;;;;;;;7.61;78.03;101937.56;5098668;28;20092;-70
2023/11/22 09:25:16;;;;;;;7.88;2.40;;;;;;;7.61;77.10;101909.94;5100201;28;20046;-70
2023/11/22 09:27:46;;;;;;;6.25;2.47;;;;;;;7.64;77.50;101928.38;5098971;28;20020;-70
2023/11/22 09:30:19;;;;;;;8.55;2.70;;;;;;;7.76;77.27;101903.91;5100304;28;20491;-70
2023/11/22 09:32:47;;;;;;;8.95;2.80;;;;;;;7.84;76.94;101907.66;5099652;28;20046;-70
2023/11/22 09:35:15;;;;;;;8.80;2.80;;;;;;;7.71;77.87;101883.91;5100270;28;20173;-69
2023/11/22 09:37:44;;;;;;;9.13;2.90;;;;;;;7.75;78.70;101901.38;5099708;28;20074;-70
2023/11/22 09:40:11;;;;;;;10.68;2.70;;;;;;;7.86;78.93;101906.50;5100885;28;20024;-70
2023/11/22 09:42:36;;;;;;;7.05;2.88;;;;;;;7.78;78.68;101882.28;5100423;28;20024;-69
2023/11/22 09:45:02;;;;;;;9.73;2.67;;;;;;;7.71;79.70;101871.34;5099736;28;20042;-69
2023/11/22 09:47:32;;;;;;;10.82;2.65;;;;;;;7.86;78.94;101871.66;5100195;28;20410;-69
2023/11/22 09:50:02;;;;;;;8.93;2.72;;;;;;;7.86;79.20;101844.03;5099569;28;20023;-70
2023/11/22 09:52:33;;;;;;;8.30;2.22;;;;;;;7.86;79.20;101838.66;5081794;28;20031;-70
2023/11/22 09:54:59;;;;;;;5.45;2.25;;;;;;;7.86;79.25;101825.28;5098246;28;20022;-70
2023/11/22 09:57:26;;;;;;;11.05;2.78;;;;;;;7.94;79.45;101825.31;5095296;28;20020;-70
2023/11/22 09:59:54;;;;;;;9.68;2.60;;;;;;;7.97;79.84;101806.25;5096446;28;20052;-69
2023/11/22 10:02:26;;;;;;;11.07;2.47;;;;;;;8.04;79.56;101814.50;5100799;28;20056;-70
2023/11/22 10:04:52;;;;;;;6.18;2.53;;;;;;;7.97;79.45;101807.09;5101049;28;20031;-69
2023/11/22 10:07:17;;;;;;;9.27;2.88;;;;;;;7.87;79.92;101781.41;5098191;28;20061;-70
2023/11/22 10:09:43;;;;;;;13.75;3.40;;;;;;;8.03;80.67;101794.91;5081581;28;20394;-70
2023/11/22 10:12:12;;;;;;;13.32;3.05;;;;;;;7.97;81.05;101795.53;5100019;28;20068;-70
2023/11/22 10:14:38;;;;;;;11.82;2.45;;;;;;;8.03;81.21;101775.31;5099634;28;20024;-69
2023/11/22 10:17:05;;;;;;;14.77;3.33;;;;;;;8.05;81.18;101776.00;5079701;28;20429;-69
2023/11/22 10:19:31;;;;;;;8.35;2.90;;;;;;;8.18;80.77;101763.84;5075909;28;20505;-70
2023/11/22 10:22:04;;;;;;;11.25;3.13;;;;;;;8.20;80.77;101740.38;5094720;28;20028;-69
2023/11/22 10:24:33;;;;;;;12.48;2.55;;;;;;;8.10;81.69;101752.22;5099048;28;20489;-69
2023/11/22 10:26:59;;;;;;;16.20;3.05;;;;;;;8.29;81.27;101741.25;5099469;28;20024;-69
2023/11/22 10:29:25;;;;;;;8.25;2.88;;;;;;;8.19;81.09;101729.81;5099206;28;20020;-70
2023/11/22 10:31:51;;;;;;;9.07;2.90;;;;;;;8.34;80.79;101738.06;5093613;28;20090;-70
2023/11/22 10:34:20;;;;;;;13.65;2.55;;;;;;;8.24;82.26;101740.88;5096037;28;20024;-69
2023/11/22 10:36:47;;;;;;;10.98;2.92;;;;;;;7.99;83.16;101745.31;5098938;28;20402;-70
2023/11/22 10:39:16;;;;;;;11.38;2.85;;;;;;;8.18;82.63;101737.03;5097802;28;20486;-69
2023/11/22 10:41:43;;;;;;;7.22;2.47;;;;;;;8.20;82.51;101739.53;5097614;28;20035;-69
2023/11/22 10:44:09;;;;;;;9.45;3.00;;;;;;;8.23;82.56;101740.03;5100035;28;20380;-70
2023/11/22 10:46:36;;;;;;;11.85;2.88;;;;;;;8.20;82.97;101737.69;5081491;28;20049;-70
2023/11/22 10:49:01;;;;;;;7.15;2.42;;;;;;;8.13;82.74;101717.06;5099478;28;20028;-70
2023/11/22 10:51:32;;;;;;;8.60;2.72;;;;;;;8.24;82.30;101727.47;5102667;28;20120;-69
2023/11/22 10:54:00;;;;;;;10.13;2.25;;;;;;;8.10;83.35;101722.72;5103051;28;20034;-69
2023/11/22 10:56:28;;;;;;;11.77;3.10;;;;;;;8.36;82.85;101728.88;5103618;28;20016;-69
2023/11/22 10:58:57;;;;;;;11.43;3.05;;;;;;;8.41;81.87;101664.91;5102743;28;20060;-70
2023/11/22 11:01:29;;;;;;;16.17;3.42;;;;;;;8.22;84.10;101649.06;5102332;28;20032;-70
2023/11/22 11:04:11;;;;;;;10.35;3.55;;;;;;;8.31;83.96;101637.38;5100436;28;20024;-70
2023/11/22 11:06:37;;;;;;;8.65;2.88;;;;;;;8.31;83.92;101629.31;5098685;28;20030;-70
2023/11/22 11:09:05;;;;;;;11.57;3.00;;;;;;;8.38;84.24;101638.41;5098836;28;20027;-69
2023/11/22 11:11:33;;;;;;;8.88;2.83;;;;;;;8.20;85.33;101610.84;5099070;28;20423;-70
2023/11/22 11:14:00;;;;;;;6.95;2.38;;;;;;;8.18;86.94;101615.53;5099763;28;20016;-70
2023/11/22 11:16:26;;;;;;;21.65;3.78;;;;;;;8.21;87.66;101601.78;5098708;28;20023;-70
2023/11/22 11:18:52;;;;;;;14.95;3.20;;;;;;;8.16;88.86;101594.25;5098991;28;20062;-70
2023/11/22 11:21:19;;;;;;;13.00;3.42;;;;;;;8.18;88.75;101559.25;5099114;28;20030;-70
2023/11/22 11:23:44;;;;;;;9.70;3.05;;;;;;;8.09;89.68;101577.16;5098464;28;20081;-70
2023/11/22 11:26:21;;;;;;;13.55;3.25;;;;;;;8.08;89.48;101558.53;5100141;28;20088;-70
2023/11/22 11:28:48;;;;;;;9.80;2.90;;;;;;;8.19;89.57;101606.50;5095253;28;20035;-70